Time;durP1;ratioP1;P1;durP2;ratioP2;P2;SDS_P1;SDS_P2;PMS_P1;PMS_P2;Temp;Humidity;BMP_temperature;BMP_pressure;BME280_temperature;BME280_humidity;BME280_pressure;Samples;Min_cycle;Max_cycle;Signal;HPM_P1;HPM_P2
2022/10/28 00:01:06;;;;;;;14.33;12.87;;;17.10;38.50;;;;;;5039602;28;20423;-50
2022/10/28 00:03:32;;;;;;;11.97;11.27;;;17.10;38.60;;;;;;5041124;28;20419;-50
2022/10/28 00:06:06;;;;;;;12.27;11.47;;;17.10;38.50;;;;;;5043211;28;20419;-53
2022/10/28 00:08:32;;;;;;;11.67;11.00;;;17.10;38.60;;;;;;5043068;28;20503;-53
2022/10/28 00:11:08;;;;;;;12.83;11.60;;;17.10;38.60;;;;;;5045419;28;20814;-53
2022/10/28 00:13:34;;;;;;;11.90;10.97;;;17.10;38.50;;;;;;5041471;28;20413;-52
2022/10/28 00:16:05;;;;;;;12.63;11.70;;;17.20;38.50;;;;;;5042765;28;20407;-54
2022/10/28 00:18:31;;;;;;;12.17;11.37;;;17.10;38.40;;;;;;5041708;28;20465;-52
2022/10/28 00:21:06;;;;;;;12.47;11.77;;;17.20;38.60;;;;;;5043531;28;20912;-52
2022/10/28 00:23:32;;;;;;;12.50;11.60;;;17.10;39.10;;;;;;5043212;28;20417;-49
2022/10/28 00:26:25;;;;;;;13.53;12.40;;;17.10;39.00;;;;;;5041034;28;20403;-51
2022/10/28 00:28:56;;;;;;;11.93;11.17;;;17.10;38.80;;;;;;5040746;28;20422;-51
2022/10/28 00:31:24;;;;;;;12.43;11.63;;;17.10;39.10;;;;;;5043424;28;20442;-53
2022/10/28 00:33:50;;;;;;;12.83;11.70;;;17.10;39.00;;;;;;5043883;28;20433;-50
2022/10/28 00:36:17;;;;;;;11.77;11.00;;;17.10;39.10;;;;;;5043226;28;20786;-53
2022/10/28 00:38:44;;;;;;;12.53;11.53;;;17.10;39.90;;;;;;5041945;28;20982;-52
2022/10/28 00:41:13;;;;;;;12.53;11.83;;;17.10;39.30;;;;;;5041002;28;20411;-50
2022/10/28 00:43:47;;;;;;;13.47;12.03;;;17.10;39.00;;;;;;5042914;28;21015;-50
2022/10/28 00:46:45;;;;;;;12.90;11.97;;;17.10;38.70;;;;;;5044631;28;20448;-51
2022/10/28 00:49:27;;;;;;;12.47;11.53;;;17.10;38.80;;;;;;5043490;28;20463;-53
2022/10/28 00:51:58;;;;;;;12.23;11.43;;;17.20;38.70;;;;;;5043317;28;20418;-50
2022/10/28 00:54:25;;;;;;;12.97;11.87;;;17.20;39.10;;;;;;5045301;28;20422;-48
2022/10/28 00:56:54;;;;;;;12.90;11.90;;;17.20;38.90;;;;;;5044910;28;20529;-50
2022/10/28 00:59:36;;;;;;;13.40;12.50;;;17.30;38.50;;;;;;5044942;28;20515;-52
2022/10/28 01:02:04;;;;;;;12.13;11.30;;;17.30;38.60;;;;;;5043156;28;20488;-50
2022/10/28 01:04:30;;;;;;;12.37;11.77;;;17.30;38.60;;;;;;5043264;28;20418;-52
2022/10/28 01:06:57;;;;;;;12.90;11.60;;;17.30;38.60;;;;;;5045709;28;20771;-53
2022/10/28 01:09:23;;;;;;;13.57;12.30;;;17.30;38.70;;;;;;5046042;28;20414;-53
2022/10/28 01:12:13;;;;;;;13.03;12.07;;;17.30;38.80;;;;;;5044017;28;20468;-50
2022/10/28 01:14:44;;;;;;;13.00;12.10;;;17.30;38.50;;;;;;5045342;28;20176;-53
2022/10/28 01:17:28;;;;;;;12.27;11.57;;;17.30;37.90;;;;;;5047578;28;20679;-49
2022/10/28 01:20:12;;;;;;;12.40;11.80;;;17.30;38.30;;;;;;5046067;28;20429;-50
2022/10/28 01:22:47;;;;;;;13.73;12.30;;;17.30;38.30;;;;;;5046219;28;20410;-49
2022/10/28 01:25:13;;;;;;;12.00;11.30;;;17.40;38.00;;;;;;5047655;28;20761;-51
2022/10/28 01:27:56;;;;;;;13.10;12.30;;;17.40;38.00;;;;;;5045316;28;20497;-50
2022/10/28 01:30:25;;;;;;;12.40;11.70;;;17.30;38.20;;;;;;5045453;28;20677;-53
2022/10/28 01:33:06;;;;;;;13.27;12.27;;;17.30;38.60;;;;;;5046168;28;20430;-53
2022/10/28 01:35:51;;;;;;;13.77;12.60;;;17.30;38.80;;;;;;5046425;28;20413;-53
2022/10/28 01:38:29;;;;;;;12.13;11.23;;;17.30;38.50;;;;;;5045067;28;20469;-51
2022/10/28 01:41:27;;;;;;;13.30;12.10;;;17.30;38.50;;;;;;5043343;28;20422;-52
2022/10/28 01:44:08;;;;;;;12.97;12.07;;;17.30;38.70;;;;;;5044679;28;20509;-51
2022/10/28 01:46:40;;;;;;;12.37;11.67;;;17.30;39.10;;;;;;5048787;28;20752;-53
2022/10/28 01:49:15;;;;;;;14.43;12.37;;;17.20;39.00;;;;;;5047861;28;20418;-51
2022/10/28 01:51:45;;;;;;;12.80;12.10;;;17.20;39.40;;;;;;5047044;28;20422;-52
2022/10/28 01:54:14;;;;;;;12.77;12.03;;;17.20;39.20;;;;;;5045841;28;20406;-50
2022/10/28 01:56:42;;;;;;;11.87;11.27;;;17.20;39.10;;;;;;5044734;28;20422;-50
2022/10/28 01:59:15;;;;;;;12.67;11.90;;;17.20;39.10;;;;;;5046918;28;20458;-50
2022/10/28 02:01:40;;;;;;;13.00;12.00;;;17.10;39.50;;;;;;5044776;28;20423;-50
2022/10/28 02:04:06;;;;;;;13.20;12.33;;;17.10;39.30;;;;;;5044929;28;20497;-49
2022/10/28 02:06:33;;;;;;;13.87;12.87;;;17.10;39.20;;;;;;5044901;28;20199;-52
2022/10/28 02:09:34;;;;;;;13.40;12.30;;;17.10;39.40;;;;;;5045605;28;20180;-53
2022/10/28 02:12:00;;;;;;;13.30;12.50;;;17.10;39.60;;;;;;5043562;28;20423;-51
2022/10/28 02:14:38;;;;;;;13.70;12.73;;;17.10;39.30;;;;;;5047343;28;20421;-53
2022/10/28 02:17:30;;;;;;;13.40;12.73;;;17.10;39.30;;;;;;5045724;28;20651;-51
2022/10/28 02:20:47;;;;;;;13.30;12.40;;;17.10;39.40;;;;;;5044553;28;20430;-51
2022/10/28 02:23:23;;;;;;;13.03;12.20;;;17.10;39.80;;;;;;5034437;28;20433;-52
2022/10/28 02:26:27;;;;;;;13.50;12.47;;;17.10;39.60;;;;;;5045168;28;20442;-55
2022/10/28 02:29:07;;;;;;;13.40;12.70;;;17.10;39.50;;;;;;5044378;28;20910;-52
2022/10/28 02:31:44;;;;;;;13.93;13.03;;;17.10;39.60;;;;;;5045890;28;20429;-52
2022/10/28 02:34:19;;;;;;;13.03;12.33;;;17.00;39.60;;;;;;5045215;28;20410;-53
2022/10/28 02:36:49;;;;;;;13.67;12.87;;;17.00;39.80;;;;;;5045526;28;20532;-51
2022/10/28 02:39:19;;;;;;;13.53;12.73;;;17.00;39.60;;;;;;5045649;28;20599;-54
2022/10/28 02:42:12;;;;;;;13.10;12.40;;;17.00;39.80;;;;;;5045341;28;20427;-51
2022/10/28 02:44:43;;;;;;;13.27;12.57;;;16.90;40.10;;;;;;5046486;28;20759;-51
2022/10/28 02:47:19;;;;;;;12.83;12.13;;;16.90;40.10;;;;;;5045967;28;20751;-53
2022/10/28 02:49:49;;;;;;;13.50;12.80;;;16.90;40.40;;;;;;5045251;28;20918;-52
2022/10/28 02:52:18;;;;;;;14.03;12.83;;;16.90;40.50;;;;;;5045732;28;20423;-53
2022/10/28 02:54:55;;;;;;;13.93;12.97;;;16.90;40.40;;;;;;5043909;28;20410;-51
2022/10/28 02:57:27;;;;;;;13.23;12.30;;;16.90;40.30;;;;;;5046541;28;20436;-53
2022/10/28 03:00:01;;;;;;;13.67;12.80;;;16.90;40.60;;;;;;5044173;28;20462;-51
2022/10/28 03:02:28;;;;;;;13.97;13.00;;;16.90;40.50;;;;;;5045247;28;20434;-53
2022/10/28 03:04:53;;;;;;;12.93;12.23;;;16.90;40.30;;;;;;5045666;28;20419;-54
2022/10/28 03:07:19;;;;;;;14.00;13.10;;;16.90;40.80;;;;;;5046415;28;20549;-52
2022/10/28 03:09:45;;;;;;;14.20;13.40;;;16.90;40.70;;;;;;5044698;28;20188;-52
2022/10/28 03:12:10;;;;;;;14.00;13.30;;;16.90;40.80;;;;;;5045218;28;20437;-53
2022/10/28 03:14:36;;;;;;;14.67;13.93;;;16.90;40.80;;;;;;5047856;28;20195;-53
2022/10/28 03:17:02;;;;;;;13.80;12.93;;;16.80;41.00;;;;;;5044892;28;20291;-54
2022/10/28 03:19:28;;;;;;;14.80;13.90;;;16.80;41.00;;;;;;5045805;28;20553;-54
2022/10/28 03:21:54;;;;;;;14.70;14.00;;;16.80;41.60;;;;;;5045812;28;20542;-52
2022/10/28 03:24:19;;;;;;;14.40;13.67;;;16.80;41.40;;;;;;5047807;28;20584;-54
2022/10/28 03:26:45;;;;;;;14.10;13.30;;;16.80;41.60;;;;;;5046572;28;20485;-52
2022/10/28 03:29:10;;;;;;;14.47;13.57;;;16.80;41.20;;;;;;5032466;28;20545;-52
2022/10/28 03:31:36;;;;;;;14.70;13.80;;;16.80;41.50;;;;;;5046825;28;20560;-51
2022/10/28 03:34:01;;;;;;;14.27;13.43;;;16.80;41.10;;;;;;5049806;28;20180;-53
2022/10/28 03:36:27;;;;;;;14.10;13.40;;;16.70;41.60;;;;;;5049649;28;20183;-53
2022/10/28 03:38:53;;;;;;;15.67;14.77;;;16.60;41.60;;;;;;5049461;28;20752;-52
2022/10/28 03:41:18;;;;;;;15.80;14.73;;;16.60;41.50;;;;;;5047474;28;20624;-52
2022/10/28 03:43:44;;;;;;;17.53;14.60;;;16.60;41.50;;;;;;5049398;28;20184;-49
2022/10/28 03:46:10;;;;;;;14.73;13.57;;;16.60;42.00;;;;;;5050095;28;20176;-52
2022/10/28 03:48:35;;;;;;;14.13;13.47;;;16.60;42.30;;;;;;5049319;28;20180;-52
2022/10/28 03:51:01;;;;;;;13.40;12.70;;;16.60;42.20;;;;;;5050256;28;20183;-52
2022/10/28 03:53:27;;;;;;;15.67;14.50;;;16.50;42.80;;;;;;5049067;28;20568;-54
2022/10/28 03:55:53;;;;;;;14.20;13.50;;;16.60;42.20;;;;;;5049440;28;20180;-53
2022/10/28 03:58:20;;;;;;;13.80;13.10;;;16.60;42.20;;;;;;5051509;28;20629;-52
2022/10/28 04:00:48;;;;;;;14.87;13.77;;;16.60;42.20;;;;;;5048546;28;20471;-55
2022/10/28 04:03:14;;;;;;;13.60;12.70;;;16.70;42.20;;;;;;5050897;28;20897;-52
2022/10/28 04:05:40;;;;;;;14.47;13.50;;;16.60;41.80;;;;;;5050416;28;20418;-53
2022/10/28 04:08:06;;;;;;;15.73;14.63;;;16.60;41.90;;;;;;5048816;28;20429;-52
2022/10/28 04:10:31;;;;;;;14.27;13.43;;;16.60;42.00;;;;;;5032808;28;20181;-53
2022/10/28 04:13:01;;;;;;;16.03;14.50;;;16.60;42.10;;;;;;5049865;28;20184;-48
2022/10/28 04:15:27;;;;;;;14.73;13.93;;;16.60;42.00;;;;;;5050500;28;20577;-52
2022/10/28 04:17:53;;;;;;;15.07;13.87;;;16.50;42.20;;;;;;5050489;28;20457;-53
2022/10/28 04:20:18;;;;;;;15.20;14.10;;;16.60;42.10;;;;;;5049399;28;20176;-49
2022/10/28 04:22:44;;;;;;;14.80;14.10;;;16.60;41.80;;;;;;5051832;28;20275;-52
2022/10/28 04:25:10;;;;;;;14.13;13.43;;;16.60;42.00;;;;;;5050384;28;20544;-51
2022/10/28 04:27:35;;;;;;;14.43;13.63;;;16.60;42.00;;;;;;5049802;28;20606;-51
2022/10/28 04:30:02;;;;;;;13.70;12.90;;;16.60;42.10;;;;;;5048511;28;20557;-52
2022/10/28 04:32:27;;;;;;;14.33;13.30;;;16.60;42.10;;;;;;5050337;28;20187;-54
2022/10/28 04:34:53;;;;;;;13.37;12.60;;;16.60;42.10;;;;;;5049643;28;20427;-55
2022/10/28 04:37:19;;;;;;;14.97;13.90;;;16.60;42.20;;;;;;5048986;28;20199;-55
2022/10/28 04:39:44;;;;;;;16.27;15.03;;;16.60;41.90;;;;;;5032645;28;20207;-56
2022/10/28 04:42:10;;;;;;;14.63;13.83;;;16.70;43.10;;;;;;5049374;28;20218;-55
2022/10/28 04:44:36;;;;;;;18.27;13.67;;;16.60;42.30;;;;;;5049409;28;20172;-53
2022/10/28 04:47:01;;;;;;;15.20;13.63;;;16.60;42.50;;;;;;5049484;28;20778;-55
2022/10/28 04:49:27;;;;;;;13.57;12.77;;;16.60;42.40;;;;;;5049734;28;20180;-54
2022/10/28 04:51:52;;;;;;;13.90;13.07;;;16.60;42.20;;;;;;5052242;28;20180;-54
2022/10/28 04:54:18;;;;;;;15.30;14.30;;;16.60;43.00;;;;;;5053603;28;20266;-54
2022/10/28 04:56:44;;;;;;;13.97;12.83;;;16.70;42.50;;;;;;5053688;28;20187;-54
2022/10/28 04:59:09;;;;;;;15.40;14.13;;;16.60;42.00;;;;;;5053289;28;20738;-53
2022/10/28 05:01:35;;;;;;;14.50;13.60;;;16.70;42.50;;;;;;5052105;28;20636;-52
2022/10/28 05:04:01;;;;;;;14.60;13.40;;;16.50;42.90;;;;;;5053921;28;20283;-54
2022/10/28 05:06:26;;;;;;;13.17;12.50;;;16.60;43.10;;;;;;5053067;28;20417;-51
2022/10/28 05:08:52;;;;;;;13.93;13.00;;;16.60;43.30;;;;;;5052794;28;20694;-50
2022/10/28 05:11:18;;;;;;;15.07;14.07;;;16.70;43.00;;;;;;5052531;28;20179;-52
2022/10/28 05:13:43;;;;;;;14.27;13.07;;;16.60;43.10;;;;;;5053103;28;20183;-50
2022/10/28 05:16:09;;;;;;;13.53;12.73;;;16.70;43.20;;;;;;5052575;28;20287;-53
2022/10/28 05:18:35;;;;;;;13.20;12.30;;;16.70;43.30;;;;;;5052347;28;20239;-52
2022/10/28 05:21:00;;;;;;;14.03;13.13;;;16.70;42.60;;;;;;5053812;28;20176;-54
2022/10/28 05:23:26;;;;;;;14.87;13.80;;;16.70;43.20;;;;;;5051492;28;20183;-51
2022/10/28 05:25:52;;;;;;;14.13;13.43;;;16.70;42.90;;;;;;5052240;28;20176;-54
2022/10/28 05:28:18;;;;;;;14.10;13.20;;;16.70;43.20;;;;;;5053709;28;20187;-53
2022/10/28 05:30:44;;;;;;;14.00;13.10;;;16.70;43.40;;;;;;5052256;28;20195;-54
2022/10/28 05:33:10;;;;;;;14.43;13.33;;;16.60;43.00;;;;;;5052238;28;20433;-54
2022/10/28 05:35:39;;;;;;;14.37;13.43;;;16.60;43.40;;;;;;5050906;28;20232;-54
2022/10/28 05:38:05;;;;;;;13.83;13.13;;;16.60;43.30;;;;;;5049982;28;21013;-53
2022/10/28 05:40:33;;;;;;;15.00;13.93;;;16.60;43.70;;;;;;5050068;28;20406;-49
2022/10/28 05:43:02;;;;;;;16.43;14.50;;;16.60;42.80;;;;;;5051677;28;20263;-51
2022/10/28 05:45:28;;;;;;;13.53;12.83;;;16.70;42.50;;;;;;5050883;28;20530;-53
2022/10/28 05:47:54;;;;;;;14.53;13.43;;;16.60;42.60;;;;;;5050498;28;20446;-52
2022/10/28 05:50:21;;;;;;;14.40;13.40;;;16.60;42.70;;;;;;5049416;28;20260;-51
2022/10/28 05:52:54;;;;;;;14.73;13.93;;;16.60;42.70;;;;;;5050150;28;20210;-55
2022/10/28 05:55:22;;;;;;;14.80;13.90;;;16.60;43.00;;;;;;5050333;28;20427;-55
2022/10/28 05:57:49;;;;;;;15.17;14.37;;;16.60;43.00;;;;;;5049642;28;20789;-54
2022/10/28 06:00:17;;;;;;;15.10;13.97;;;16.60;43.00;;;;;;5049578;28;20778;-54
2022/10/28 06:02:43;;;;;;;14.80;13.90;;;16.60;43.10;;;;;;5048140;28;20506;-54
2022/10/28 06:05:09;;;;;;;14.70;13.80;;;16.60;43.00;;;;;;5050322;28;20500;-58
2022/10/28 06:07:36;;;;;;;15.10;14.30;;;16.60;42.90;;;;;;5052179;28;20171;-54
2022/10/28 06:10:06;;;;;;;15.10;13.97;;;16.70;42.20;;;;;;5049056;28;20414;-53
2022/10/28 06:12:32;;;;;;;14.07;13.00;;;16.70;42.40;;;;;;5050448;28;20759;-56
2022/10/28 06:14:57;;;;;;;15.07;14.07;;;16.70;42.00;;;;;;5049406;28;20459;-55
2022/10/28 06:17:23;;;;;;;15.47;14.30;;;16.70;41.70;;;;;;5051375;28;20471;-55
2022/10/28 06:19:49;;;;;;;14.77;13.67;;;16.70;41.90;;;;;;5050189;28;20226;-54
2022/10/28 06:22:14;;;;;;;15.23;13.90;;;16.70;41.40;;;;;;5048518;28;20425;-51
2022/10/28 06:24:40;;;;;;;13.73;12.50;;;16.70;41.00;;;;;;5050166;28;20585;-55
2022/10/28 06:27:06;;;;;;;15.00;13.60;;;16.70;41.10;;;;;;5051052;28;20694;-54
2022/10/28 06:29:33;;;;;;;13.90;12.90;;;16.80;41.20;;;;;;5047896;28;20223;-55
2022/10/28 06:31:58;;;;;;;14.10;13.30;;;16.80;41.30;;;;;;5050013;28;20588;-54
2022/10/28 06:34:24;;;;;;;14.63;13.60;;;16.80;41.20;;;;;;5050236;28;20414;-53
2022/10/28 06:36:50;;;;;;;13.80;12.73;;;16.80;41.90;;;;;;5050420;28;20203;-52
2022/10/28 06:39:15;;;;;;;14.50;13.70;;;16.80;41.10;;;;;;5048670;28;20208;-53
2022/10/28 06:41:41;;;;;;;14.00;12.87;;;16.80;41.10;;;;;;5050915;28;20172;-54
2022/10/28 06:44:07;;;;;;;14.83;13.37;;;16.80;41.00;;;;;;5048899;28;20175;-54
2022/10/28 06:46:33;;;;;;;13.53;12.80;;;16.80;41.10;;;;;;5048366;28;20655;-55
2022/10/28 06:49:01;;;;;;;13.93;12.83;;;16.80;41.10;;;;;;5049009;28;20440;-53
2022/10/28 06:51:28;;;;;;;15.80;14.00;;;16.80;41.70;;;;;;5048088;28;20176;-53
2022/10/28 06:53:54;;;;;;;14.47;13.57;;;16.90;42.00;;;;;;5049348;28;20473;-54
2022/10/28 06:56:20;;;;;;;14.17;13.07;;;16.90;41.80;;;;;;5050479;28;20915;-53
2022/10/28 06:58:53;;;;;;;17.20;13.90;;;16.90;41.60;;;;;;5048265;28;20593;-53
2022/10/28 07:01:19;;;;;;;14.60;13.50;;;16.90;42.10;;;;;;5048423;28;20172;-55
2022/10/28 07:03:45;;;;;;;13.80;12.80;;;16.90;41.40;;;;;;5048283;28;20458;-57
2022/10/28 07:06:11;;;;;;;14.33;13.30;;;16.90;41.50;;;;;;5046012;28;20418;-57
2022/10/28 07:08:37;;;;;;;14.57;13.37;;;16.90;41.60;;;;;;5045495;28;20441;-57
2022/10/28 07:11:02;;;;;;;13.97;12.97;;;16.80;41.10;;;;;;5050062;28;20187;-53
2022/10/28 07:13:28;;;;;;;13.70;12.80;;;16.90;41.20;;;;;;5049792;28;20198;-53
2022/10/28 07:15:56;;;;;;;13.80;12.40;;;16.90;40.50;;;;;;5050791;28;20192;-54
2022/10/28 07:18:23;;;;;;;16.47;12.53;;;16.90;40.60;;;;;;5050885;28;20478;-53
2022/10/28 07:20:49;;;;;;;13.53;12.50;;;17.00;40.50;;;;;;5050553;28;20418;-53
2022/10/28 07:23:16;;;;;;;14.70;13.57;;;17.00;40.70;;;;;;5050774;28;20448;-54
2022/10/28 07:25:42;;;;;;;24.20;13.73;;;17.00;40.90;;;;;;5050763;28;20603;-53
2022/10/28 07:28:08;;;;;;;13.60;12.70;;;17.00;40.90;;;;;;5050868;28;20836;-52
2022/10/28 07:30:33;;;;;;;15.60;13.90;;;17.00;41.10;;;;;;5050409;28;20438;-53
2022/10/28 07:33:00;;;;;;;14.03;12.73;;;17.10;41.30;;;;;;5048196;28;20430;-53
2022/10/28 07:35:27;;;;;;;13.73;12.53;;;17.10;41.00;;;;;;5050986;28;20632;-55
2022/10/28 07:37:52;;;;;;;12.73;11.60;;;17.10;39.90;;;;;;5050527;28;20965;-53
2022/10/28 07:40:20;;;;;;;11.70;11.00;;;17.10;37.70;;;;;;5050314;28;20497;-54
2022/10/28 07:42:46;;;;;;;11.80;10.97;;;17.20;34.50;;;;;;5050546;28;20610;-54
2022/10/28 07:45:12;;;;;;;12.00;11.30;;;17.30;32.50;;;;;;5050769;28;20505;-53
2022/10/28 07:47:37;;;;;;;11.80;11.30;;;17.40;33.10;;;;;;5050418;28;20184;-54
2022/10/28 07:50:05;;;;;;;12.60;11.70;;;17.50;33.80;;;;;;5049982;28;20271;-53
2022/10/28 07:52:30;;;;;;;12.20;11.33;;;17.50;34.30;;;;;;5050468;28;20224;-56
2022/10/28 07:54:56;;;;;;;13.70;12.47;;;17.50;34.10;;;;;;5050535;28;20418;-54
2022/10/28 07:57:22;;;;;;;13.67;12.87;;;17.50;35.40;;;;;;5050399;28;20176;-55
2022/10/28 07:59:47;;;;;;;13.67;12.70;;;17.50;35.20;;;;;;5050251;28;20214;-53
2022/10/28 08:02:19;;;;;;;13.10;12.20;;;17.50;35.60;;;;;;5050006;28;20176;-54
2022/10/28 08:04:45;;;;;;;12.60;11.67;;;17.50;36.00;;;;;;5050434;28;20176;-55
2022/10/28 08:07:11;;;;;;;11.87;11.27;;;17.50;36.70;;;;;;5050492;28;20560;-53
2022/10/28 08:09:37;;;;;;;14.20;12.43;;;17.50;37.90;;;;;;5050254;28;20258;-55
2022/10/28 08:12:04;;;;;;;13.03;12.30;;;17.50;38.10;;;;;;5050096;28;20414;-54
2022/10/28 08:14:29;;;;;;;14.13;13.23;;;17.50;37.90;;;;;;5050226;28;20476;-53
2022/10/28 08:16:55;;;;;;;13.30;12.53;;;17.50;38.10;;;;;;5050410;28;20418;-55
2022/10/28 08:19:21;;;;;;;13.00;12.27;;;17.50;38.10;;;;;;5050308;28;20617;-55
2022/10/28 08:21:46;;;;;;;13.20;12.37;;;17.50;38.10;;;;;;5049809;28;20605;-55
2022/10/28 08:24:12;;;;;;;15.17;13.07;;;17.50;38.10;;;;;;5050738;28;20184;-55
2022/10/28 08:26:37;;;;;;;12.60;11.90;;;17.50;38.10;;;;;;5054385;28;20180;-51
2022/10/28 08:29:03;;;;;;;16.90;13.57;;;17.50;38.10;;;;;;5054475;28;20180;-56
2022/10/28 08:31:31;;;;;;;14.00;12.90;;;17.50;38.10;;;;;;5054056;28;20219;-54
2022/10/28 08:33:56;;;;;;;13.50;12.47;;;17.50;38.10;;;;;;5054111;28;20613;-53
2022/10/28 08:36:22;;;;;;;14.50;13.30;;;17.50;38.10;;;;;;5054655;28;20514;-55
2022/10/28 08:38:48;;;;;;;13.57;12.20;;;17.50;38.40;;;;;;5054226;28;20218;-56
2022/10/28 08:41:32;;;;;;;12.73;11.83;;;17.50;39.80;;;;;;5053317;28;20232;-54
2022/10/28 08:44:34;;;;;;;14.07;12.83;;;17.60;40.40;;;;;;5053791;28;20237;-54
2022/10/28 08:47:22;;;;;;;13.57;12.50;;;17.60;40.40;;;;;;5053911;28;20410;-54
2022/10/28 08:49:55;;;;;;;12.90;12.20;;;17.60;38.20;;;;;;5053234;28;20937;-54
2022/10/28 08:52:48;;;;;;;13.80;13.00;;;17.50;38.10;;;;;;5054004;28;20418;-53
2022/10/28 08:55:31;;;;;;;14.97;13.90;;;17.60;38.20;;;;;;5054059;28;20848;-54
2022/10/28 08:58:23;;;;;;;19.97;13.30;;;17.60;38.20;;;;;;5053669;28;20434;-53
2022/10/28 09:00:53;;;;;;;14.27;13.13;;;17.60;39.30;;;;;;5053098;28;20428;-53
2022/10/28 09:03:34;;;;;;;12.97;12.17;;;17.70;38.70;;;;;;5053591;28;20425;-53
2022/10/28 09:06:06;;;;;;;16.03;14.33;;;17.70;39.00;;;;;;5053516;28;20424;-55
2022/10/28 09:08:47;;;;;;;13.90;12.67;;;17.70;38.40;;;;;;5053743;28;20983;-54
2022/10/28 09:11:23;;;;;;;13.77;12.67;;;17.70;38.20;;;;;;5053090;28;20434;-54
2022/10/28 09:14:14;;;;;;;13.40;12.50;;;17.70;38.20;;;;;;5053733;28;20425;-53
2022/10/28 09:16:46;;;;;;;12.97;12.13;;;17.80;38.30;;;;;;5053379;28;20421;-54
2022/10/28 09:19:46;;;;;;;14.40;11.87;;;17.80;38.40;;;;;;5053437;28;20480;-54
2022/10/28 09:22:29;;;;;;;14.40;13.30;;;17.90;38.90;;;;;;5052943;28;20414;-56
2022/10/28 09:25:02;;;;;;;13.63;12.83;;;17.90;37.80;;;;;;5053279;28;20423;-52
2022/10/28 09:27:27;;;;;;;14.80;13.50;;;17.90;38.10;;;;;;5053206;28;20419;-54
2022/10/28 09:30:04;;;;;;;13.63;12.80;;;17.90;38.80;;;;;;5052684;28;20454;-53
2022/10/28 09:32:38;;;;;;;16.17;13.40;;;17.90;38.40;;;;;;5053065;28;20179;-50
2022/10/28 09:35:12;;;;;;;14.60;13.60;;;17.90;38.40;;;;;;5053082;28;20471;-53
2022/10/28 09:37:44;;;;;;;15.37;14.00;;;18.00;37.60;;;;;;5052893;28;20425;-54
2022/10/28 09:40:19;;;;;;;14.80;13.80;;;18.00;37.40;;;;;;5052751;28;20796;-55
2022/10/28 09:42:53;;;;;;;15.33;13.97;;;18.00;38.60;;;;;;5052751;28;20422;-54
2022/10/28 09:45:25;;;;;;;15.17;13.83;;;18.00;39.80;;;;;;5053012;28;20418;-54
2022/10/28 09:47:57;;;;;;;15.40;14.27;;;17.90;38.40;;;;;;5052683;28;20414;-54
2022/10/28 09:50:28;;;;;;;14.30;13.03;;;17.90;38.40;;;;;;5052457;28;20788;-53
2022/10/28 09:52:54;;;;;;;14.30;13.10;;;18.00;38.60;;;;;;5052428;28;20808;-53
2022/10/28 09:55:21;;;;;;;15.63;14.27;;;18.00;39.50;;;;;;5052757;28;20422;-54
2022/10/28 09:57:47;;;;;;;14.53;13.53;;;18.00;39.40;;;;;;5052541;28;20171;-55
2022/10/28 10:00:14;;;;;;;14.37;13.20;;;18.10;39.20;;;;;;5051958;28;20426;-54
2022/10/28 10:02:41;;;;;;;13.67;12.77;;;18.20;38.70;;;;;;5052402;28;20633;-53
2022/10/28 10:05:17;;;;;;;12.90;12.03;;;18.20;38.60;;;;;;5052388;28;20480;-54
2022/10/28 10:07:56;;;;;;;13.67;12.67;;;18.30;37.50;;;;;;5052539;28;20411;-55
2022/10/28 10:10:33;;;;;;;13.00;12.10;;;18.40;36.80;;;;;;5051722;28;20927;-55
2022/10/28 10:13:02;;;;;;;13.20;12.30;;;18.50;35.90;;;;;;5051964;28;20422;-55
2022/10/28 10:15:49;;;;;;;13.57;12.60;;;18.50;36.30;;;;;;5052071;28;20922;-53
2022/10/28 10:18:22;;;;;;;13.50;12.60;;;18.60;36.10;;;;;;5052085;28;20461;-55
2022/10/28 10:20:49;;;;;;;13.97;12.43;;;18.60;36.60;;;;;;5051542;28;20500;-54
2022/10/28 10:23:33;;;;;;;13.07;12.13;;;18.70;36.40;;;;;;5052290;28;20414;-52
2022/10/28 10:26:01;;;;;;;12.77;11.77;;;18.70;35.60;;;;;;5052153;28;20869;-55
2022/10/28 10:28:27;;;;;;;13.67;12.43;;;18.80;35.80;;;;;;5052075;28;20761;-55
2022/10/28 10:30:59;;;;;;;14.17;12.90;;;18.80;35.10;;;;;;5051298;28;20443;-51
2022/10/28 10:33:38;;;;;;;13.00;12.13;;;18.90;34.30;;;;;;5051843;28;20444;-53
2022/10/28 10:36:11;;;;;;;14.23;13.13;;;19.00;35.30;;;;;;5051966;28;20414;-53
2022/10/28 10:38:45;;;;;;;13.40;12.60;;;19.00;35.00;;;;;;5051837;28;20458;-55
2022/10/28 10:41:10;;;;;;;14.43;13.30;;;19.10;35.20;;;;;;5051440;28;20422;-53
2022/10/28 10:43:36;;;;;;;14.57;13.27;;;19.10;34.10;;;;;;5051792;28;20779;-56
2022/10/28 10:46:03;;;;;;;14.23;13.23;;;19.10;33.90;;;;;;5051640;28;20187;-57
2022/10/28 10:48:35;;;;;;;13.90;12.90;;;19.20;34.20;;;;;;5050958;28;20633;-60
2022/10/28 10:51:23;;;;;;;11.67;11.17;;;19.30;34.50;;;;;;5050873;28;20426;-56
2022/10/28 10:53:52;;;;;;;13.20;12.10;;;19.40;30.60;;;;;;5051444;28;20831;-54
2022/10/28 10:56:27;;;;;;;11.13;10.47;;;19.50;29.90;;;;;;5051499;28;20899;-55
2022/10/28 10:58:55;;;;;;;11.67;11.07;;;19.60;30.70;;;;;;5051331;28;20541;-54
2022/10/28 11:01:27;;;;;;;10.37;9.87;;;19.70;29.60;;;;;;5050817;28;20780;-54
2022/10/28 11:04:05;;;;;;;10.10;9.60;;;20.10;25.60;;;;;;5052442;28;20403;-53
2022/10/28 11:06:38;;;;;;;10.13;9.60;;;20.30;25.80;;;;;;5051142;28;20418;-53
2022/10/28 11:09:06;;;;;;;11.00;10.27;;;20.40;25.70;;;;;;5051110;28;20838;-53
2022/10/28 11:11:38;;;;;;;10.10;9.60;;;20.40;26.60;;;;;;5050899;28;20497;-55
2022/10/28 11:14:16;;;;;;;10.57;9.80;;;20.40;26.90;;;;;;5050947;28;20418;-55
2022/10/28 11:16:52;;;;;;;11.70;10.90;;;20.40;28.20;;;;;;5050858;28;20426;-53
2022/10/28 11:19:38;;;;;;;10.63;10.03;;;20.30;28.90;;;;;;5050788;28;20498;-54
2022/10/28 11:22:39;;;;;;;11.30;10.70;;;20.20;29.00;;;;;;5066917;28;20492;-55
2022/10/28 11:25:37;;;;;;;11.77;10.97;;;20.20;30.00;;;;;;5050629;28;20449;-54
2022/10/28 11:28:32;;;;;;;12.33;11.23;;;20.10;31.30;;;;;;5050633;28;20497;-55
2022/10/28 11:31:09;;;;;;;10.93;10.00;;;20.10;30.00;;;;;;5049585;28;20809;-56
2022/10/28 11:33:57;;;;;;;12.00;10.90;;;20.10;31.30;;;;;;5050704;28;20767;-55
2022/10/28 11:36:51;;;;;;;13.50;12.17;;;20.00;31.60;;;;;;5051141;28;20528;-55
2022/10/28 11:39:24;;;;;;;14.63;13.17;;;20.00;31.90;;;;;;5050805;28;20554;-55
2022/10/28 11:42:17;;;;;;;14.00;12.80;;;19.90;31.70;;;;;;5050407;28;20423;-56
2022/10/28 11:45:03;;;;;;;12.80;11.93;;;19.90;31.80;;;;;;5050698;28;20790;-55
2022/10/28 11:47:59;;;;;;;12.10;11.40;;;19.80;32.90;;;;;;5050527;28;20798;-53
2022/10/28 11:50:34;;;;;;;13.60;12.40;;;19.80;33.30;;;;;;5050357;28;20422;-54
2022/10/28 11:53:41;;;;;;;12.80;11.60;;;19.70;34.10;;;;;;5050700;28;20406;-55
2022/10/28 11:56:26;;;;;;;13.50;12.30;;;19.60;34.90;;;;;;5067121;28;20427;-55
2022/10/28 11:59:12;;;;;;;13.70;12.57;;;19.60;35.10;;;;;;5049538;28;20458;-54
2022/10/28 12:02:22;;;;;;;13.00;12.10;;;19.70;34.90;;;;;;5050162;28;20415;-55
2022/10/28 12:05:18;;;;;;;13.07;12.07;;;19.70;34.90;;;;;;5049596;28;20425;-54
2022/10/28 12:08:02;;;;;;;13.20;12.33;;;19.70;35.40;;;;;;5050568;28;20429;-54
2022/10/28 12:10:55;;;;;;;13.20;12.23;;;19.70;35.50;;;;;;5050119;28;20410;-54
2022/10/28 12:13:42;;;;;;;12.10;11.30;;;19.80;33.20;;;;;;5049683;28;20509;-55
2022/10/28 12:16:10;;;;;;;12.13;11.13;;;19.90;31.90;;;;;;5030693;28;20426;-55
2022/10/28 12:19:25;;;;;;;10.00;9.60;;;20.10;30.90;;;;;;5030333;28;20459;-57
2022/10/28 12:22:31;;;;;;;11.40;10.40;;;20.30;30.20;;;;;;5032142;28;20442;-55
2022/10/28 12:25:02;;;;;;;11.43;10.73;;;20.50;28.90;;;;;;5000278;28;20767;-55
2022/10/28 12:27:35;;;;;;;12.83;11.80;;;20.60;28.90;;;;;;5030344;28;20419;-54
2022/10/28 12:30:14;;;;;;;11.00;10.40;;;20.60;29.20;;;;;;5029781;28;20790;-54
2022/10/28 12:32:41;;;;;;;11.57;10.97;;;20.60;29.60;;;;;;5030760;28;20783;-56
2022/10/28 12:35:16;;;;;;;12.50;11.50;;;20.60;30.40;;;;;;5030608;28;20419;-55
2022/10/28 12:37:48;;;;;;;12.30;11.40;;;20.60;30.40;;;;;;5030645;28;20412;-53
2022/10/28 12:40:32;;;;;;;12.87;12.07;;;20.60;30.40;;;;;;5029836;28;20646;-56
2022/10/28 12:43:28;;;;;;;12.67;11.87;;;20.60;31.50;;;;;;5029905;28;20498;-56
2022/10/28 12:45:55;;;;;;;12.70;11.70;;;20.60;31.60;;;;;;5030218;28;20505;-55
2022/10/28 12:48:34;;;;;;;14.33;13.17;;;20.60;32.30;;;;;;5030389;28;20427;-55
2022/10/28 12:51:13;;;;;;;13.93;12.83;;;20.60;32.90;;;;;;5029782;28;20431;-56
2022/10/28 12:53:59;;;;;;;14.93;13.80;;;20.60;33.30;;;;;;5030221;28;20477;-55